createdAt,value
2017-07-12T00:01:45.143Z,28.00
2017-07-12T00:04:12.738Z,28.10
2017-07-12T00:06:40.321Z,28.00
2017-07-12T00:09:07.912Z,28.10
2017-07-12T00:11:35.497Z,28.00
2017-07-12T00:14:03.082Z,28.00
2017-07-12T00:16:30.690Z,28.00
2017-07-12T00:18:58.274Z,28.00
2017-07-12T00:21:25.858Z,28.00
2017-07-12T00:23:54.288Z,28.00
2017-07-12T00:26:22.634Z,28.00
2017-07-12T00:28:50.189Z,27.90
2017-07-12T00:31:17.779Z,28.00
2017-07-12T00:33:45.362Z,27.90
2017-07-12T00:36:12.926Z,27.90
2017-07-12T00:38:40.542Z,27.90
2017-07-12T00:41:08.108Z,27.90
2017-07-12T00:43:35.671Z,28.00
2017-07-12T00:46:03.283Z,27.90
2017-07-12T00:48:31.461Z,28.00
2017-07-12T00:50:59.045Z,28.00
2017-07-12T00:53:26.643Z,28.00
2017-07-12T00:55:54.223Z,28.00
2017-07-12T00:58:21.807Z,28.00
2017-07-12T01:00:50.083Z,28.00
2017-07-12T01:03:17.650Z,28.00
2017-07-12T01:05:45.210Z,28.00
2017-07-12T01:08:12.829Z,27.90
2017-07-12T01:10:40.394Z,27.90
2017-07-12T01:13:07.959Z,27.90
2017-07-12T01:15:35.570Z,27.90
2017-07-12T01:18:03.166Z,27.90
2017-07-12T01:20:30.726Z,27.80
2017-07-12T01:22:58.333Z,27.80
2017-07-12T01:25:25.895Z,27.80
2017-07-12T01:27:53.480Z,27.80
2017-07-12T01:30:21.099Z,27.80
2017-07-12T01:32:48.667Z,27.70
2017-07-12T01:35:16.278Z,27.70
2017-07-12T01:37:43.879Z,27.70
2017-07-12T01:40:11.468Z,27.70
2017-07-12T01:42:39.067Z,27.80
2017-07-12T01:45:07.536Z,27.70
2017-07-12T01:47:35.107Z,27.80
2017-07-12T01:50:03.422Z,27.80
2017-07-12T01:52:31.236Z,27.70
2017-07-12T01:54:59.351Z,27.70
2017-07-12T01:57:26.922Z,27.70
2017-07-12T01:59:55.307Z,27.70
2017-07-12T02:02:22.895Z,27.70
2017-07-12T02:04:52.163Z,27.70
2017-07-12T02:07:20.929Z,27.70
2017-07-12T02:09:51.298Z,27.70
2017-07-12T02:12:20.438Z,27.70
2017-07-12T02:14:48.781Z,27.70
2017-07-12T02:17:16.664Z,27.60
2017-07-12T02:19:47.219Z,27.60
2017-07-12T02:22:16.706Z,27.60
2017-07-12T02:24:46.697Z,27.60
2017-07-12T02:27:16.061Z,27.60
2017-07-12T02:29:44.250Z,27.60
2017-07-12T02:32:12.605Z,27.60
2017-07-12T02:34:40.171Z,27.50
2017-07-12T02:37:07.766Z,27.60
2017-07-12T02:39:36.087Z,27.60
2017-07-12T02:42:03.646Z,27.60
2017-07-12T02:44:32.054Z,27.50
2017-07-12T02:47:00.286Z,27.50
2017-07-12T02:49:28.422Z,27.50
2017-07-12T02:51:56.019Z,27.50
2017-07-12T02:54:23.585Z,27.50
2017-07-12T02:56:51.166Z,27.40
2017-07-12T02:59:18.761Z,27.40
2017-07-12T03:01:46.322Z,27.40
2017-07-12T03:04:14.669Z,27.40
2017-07-12T03:06:42.261Z,27.40
2017-07-12T03:09:10.606Z,27.50
2017-07-12T03:11:38.196Z,27.40
2017-07-12T03:14:06.562Z,27.50
2017-07-12T03:16:34.147Z,27.40
2017-07-12T03:19:01.733Z,27.50
2017-07-12T03:21:29.323Z,27.40
2017-07-12T03:23:56.890Z,27.40
2017-07-12T03:26:24.474Z,27.40
2017-07-12T03:28:52.302Z,27.40
2017-07-12T03:31:19.863Z,27.40
2017-07-12T03:33:47.446Z,27.40
2017-07-12T03:36:15.042Z,27.40
2017-07-12T03:38:42.792Z,27.30
2017-07-12T03:41:10.374Z,27.30
2017-07-12T03:43:37.967Z,27.30
2017-07-12T03:46:05.545Z,27.30
2017-07-12T03:48:33.869Z,27.30
2017-07-12T03:51:02.062Z,27.30
2017-07-12T03:53:29.626Z,27.30
2017-07-12T03:55:57.206Z,27.30
2017-07-12T03:58:24.819Z,27.30
2017-07-12T04:00:52.379Z,27.30
2017-07-12T04:03:19.943Z,27.30
2017-07-12T04:05:47.563Z,27.30
2017-07-12T04:08:15.142Z,27.30
2017-07-12T04:10:42.706Z,27.30
2017-07-12T04:13:10.294Z,27.40
2017-07-12T04:15:37.874Z,27.40
2017-07-12T04:18:05.448Z,27.40
2017-07-12T04:20:33.058Z,27.40
2017-07-12T04:23:00.623Z,27.40
2017-07-12T04:25:28.202Z,27.40
2017-07-12T04:27:56.514Z,27.40
2017-07-12T04:30:24.865Z,27.40
2017-07-12T04:32:52.454Z,27.40
2017-07-12T04:35:21.190Z,27.20
2017-07-12T04:37:49.385Z,27.20
2017-07-12T04:40:16.955Z,27.10
2017-07-12T04:42:45.350Z,27.10
2017-07-12T04:45:13.683Z,27.10
2017-07-12T04:47:41.251Z,27.10
2017-07-12T04:50:08.842Z,27.10
2017-07-12T04:52:37.178Z,27.10
2017-07-12T04:55:05.290Z,27.20
2017-07-12T04:57:33.963Z,27.20
2017-07-12T05:00:01.545Z,27.20
2017-07-12T05:02:30.082Z,27.20
2017-07-12T05:04:57.671Z,27.10
2017-07-12T05:07:26.007Z,27.10
2017-07-12T05:09:53.585Z,27.20
2017-07-12T05:12:21.993Z,27.10
2017-07-12T05:14:50.323Z,27.10
2017-07-12T05:17:17.901Z,27.10
2017-07-12T05:19:45.511Z,27.00
2017-07-12T05:22:13.101Z,26.90
2017-07-12T05:24:40.697Z,26.80
2017-07-12T05:27:08.303Z,26.80
2017-07-12T05:29:35.867Z,26.80
2017-07-12T05:32:03.426Z,26.90
2017-07-12T05:34:31.027Z,26.80
2017-07-12T05:36:58.614Z,26.70
2017-07-12T05:39:26.223Z,26.70
2017-07-12T05:41:53.838Z,26.70
2017-07-12T05:44:21.430Z,26.70
2017-07-12T05:46:48.997Z,26.60
2017-07-12T05:49:16.590Z,26.60
2017-07-12T05:51:44.174Z,26.50
2017-07-12T05:54:11.766Z,26.50
2017-07-12T05:56:39.358Z,26.50
2017-07-12T05:59:06.938Z,26.50
2017-07-12T06:01:34.550Z,26.60
2017-07-12T06:04:02.429Z,26.60
2017-07-12T06:06:29.998Z,26.60
2017-07-12T06:08:57.570Z,26.60
2017-07-12T06:11:25.172Z,26.60
2017-07-12T06:13:53.638Z,26.70
2017-07-12T06:16:21.211Z,26.70
2017-07-12T06:18:48.831Z,26.70
2017-07-12T06:21:16.427Z,26.60
2017-07-12T06:23:44.022Z,26.60
2017-07-12T06:26:11.620Z,26.70
2017-07-12T06:28:39.214Z,26.70
2017-07-12T06:31:06.849Z,26.80
2017-07-12T06:33:40.109Z,26.90
2017-07-12T06:36:07.782Z,26.90
2017-07-12T06:38:35.374Z,26.90
2017-07-12T06:41:02.986Z,26.90
2017-07-12T06:43:30.583Z,26.90
2017-07-12T06:45:58.174Z,26.90
2017-07-12T06:48:25.775Z,26.90
2017-07-12T06:50:54.062Z,26.90
2017-07-12T06:53:23.566Z,26.90
2017-07-12T06:55:51.190Z,26.90
2017-07-12T06:58:18.760Z,26.90
2017-07-12T07:00:46.354Z,26.90
2017-07-12T07:03:13.971Z,27.10
2017-07-12T07:05:42.371Z,27.10
2017-07-12T07:08:09.955Z,27.20
2017-07-12T07:10:38.351Z,27.20
2017-07-12T07:13:06.386Z,27.20
2017-07-12T07:15:34.265Z,27.30
2017-07-12T07:18:01.870Z,27.30
2017-07-12T07:20:30.173Z,27.30
2017-07-12T07:22:57.782Z,27.30
2017-07-12T07:25:26.147Z,27.30
2017-07-12T07:27:54.482Z,27.30
2017-07-12T07:30:22.066Z,27.30
2017-07-12T07:32:49.674Z,27.30
2017-07-12T07:35:17.266Z,27.20
2017-07-12T07:37:44.858Z,27.10
2017-07-12T07:40:12.950Z,27.10
2017-07-12T07:42:40.550Z,27.20
2017-07-12T07:45:08.423Z,27.20
2017-07-12T07:47:36.023Z,27.30
2017-07-12T07:50:03.621Z,27.30
2017-07-12T07:52:31.675Z,27.30
2017-07-12T07:54:59.290Z,27.30
2017-07-12T07:57:26.892Z,27.30
2017-07-12T07:59:54.487Z,27.30
2017-07-12T08:02:22.107Z,27.30
2017-07-12T08:04:49.704Z,27.30
2017-07-12T08:07:17.299Z,27.40
2017-07-12T08:09:44.917Z,27.40
2017-07-12T08:12:12.513Z,27.40
2017-07-12T08:14:40.077Z,27.40
2017-07-12T08:17:07.701Z,27.50
2017-07-12T08:19:35.271Z,27.50
2017-07-12T08:22:02.845Z,27.60
2017-07-12T08:24:31.011Z,27.60
2017-07-12T08:26:58.571Z,27.60
2017-07-12T08:29:26.155Z,27.60
2017-07-12T08:31:54.906Z,27.60
2017-07-12T08:34:22.571Z,27.60
2017-07-12T08:36:50.138Z,27.60
2017-07-12T08:39:17.743Z,27.60
2017-07-12T08:41:45.320Z,27.70
2017-07-12T08:44:12.911Z,27.70
2017-07-12T08:46:40.550Z,27.70
2017-07-12T08:49:08.151Z,27.70
2017-07-12T08:51:35.735Z,27.70
2017-07-12T08:54:03.349Z,27.70
2017-07-12T08:56:30.933Z,27.80
2017-07-12T08:58:58.510Z,27.80
2017-07-12T09:01:26.129Z,27.80
2017-07-12T09:03:54.102Z,27.80
2017-07-12T09:06:21.680Z,27.90
2017-07-12T09:08:49.309Z,27.90
2017-07-12T09:11:16.883Z,27.90
2017-07-12T09:13:44.474Z,27.90
2017-07-12T09:16:12.839Z,27.90
2017-07-12T09:18:40.429Z,27.90
2017-07-12T09:21:08.026Z,27.90
2017-07-12T09:23:35.625Z,27.90
2017-07-12T09:33:31.296Z,28.00
2017-07-12T09:35:59.631Z,28.00
2017-07-12T09:38:33.889Z,28.00
2017-07-12T09:41:01.839Z,28.00
2017-07-12T09:43:30.321Z,28.00
2017-07-12T09:45:57.942Z,28.00
2017-07-12T09:48:26.242Z,28.00
2017-07-12T09:50:53.815Z,28.10
2017-07-12T09:53:24.559Z,28.00
2017-07-12T09:55:52.171Z,28.10
2017-07-12T09:58:20.752Z,28.10
2017-07-12T10:00:48.368Z,28.10
2017-07-12T10:03:16.127Z,28.10
2017-07-12T10:05:43.728Z,28.10
2017-07-12T10:08:12.098Z,28.10
2017-07-12T10:10:40.494Z,28.10
2017-07-12T10:13:09.030Z,28.10
2017-07-12T10:15:37.426Z,28.10
2017-07-12T10:18:07.213Z,28.00
2017-07-12T10:20:34.785Z,28.10
2017-07-12T10:23:02.382Z,28.10
2017-07-12T10:25:29.983Z,28.10
2017-07-12T10:27:57.847Z,28.10
2017-07-12T10:30:25.475Z,28.10
2017-07-12T10:32:53.770Z,28.10
2017-07-12T10:35:22.243Z,28.10
2017-07-12T10:37:49.838Z,28.10
2017-07-12T10:40:17.407Z,28.10
2017-07-12T10:42:44.984Z,28.10
2017-07-12T10:45:12.610Z,28.10
2017-07-12T10:47:40.179Z,28.10
2017-07-12T10:50:07.767Z,28.10
2017-07-12T10:52:35.374Z,28.10
2017-07-12T10:55:03.503Z,28.10
2017-07-12T10:57:31.086Z,28.10
2017-07-12T10:59:58.695Z,28.10
2017-07-12T11:02:26.266Z,28.10
2017-07-12T11:04:53.834Z,28.10
2017-07-12T11:07:21.897Z,28.10
2017-07-12T11:09:49.483Z,28.10
2017-07-12T11:12:17.059Z,28.10
2017-07-12T11:14:44.654Z,28.10
2017-07-12T11:17:12.223Z,28.10
2017-07-12T11:19:39.795Z,28.10
2017-07-12T11:22:07.387Z,28.10
2017-07-12T11:24:34.950Z,28.10
2017-07-12T11:27:02.514Z,28.10
2017-07-12T11:29:30.490Z,28.10
2017-07-12T11:31:58.055Z,28.10
2017-07-12T11:34:27.122Z,28.10
2017-07-12T11:36:54.718Z,28.20
2017-07-12T11:39:22.596Z,28.10
2017-07-12T11:41:50.201Z,28.10
2017-07-12T11:44:17.826Z,28.10
2017-07-12T11:46:45.440Z,28.10
2017-07-12T11:49:13.716Z,28.10
2017-07-12T11:51:41.357Z,28.10
2017-07-12T11:54:09.041Z,28.10
2017-07-12T11:56:36.645Z,28.20
2017-07-12T11:59:04.488Z,28.20
2017-07-12T12:01:32.087Z,28.20
2017-07-12T12:04:00.497Z,28.20
2017-07-12T12:06:28.136Z,28.20
2017-07-12T12:08:55.838Z,28.20
2017-07-12T12:11:23.411Z,28.20
2017-07-12T12:13:51.831Z,28.20
2017-07-12T12:16:19.415Z,28.20
2017-07-12T12:18:47.750Z,28.20
2017-07-12T12:21:16.714Z,28.20
2017-07-12T12:23:44.702Z,28.20
2017-07-12T12:26:12.282Z,28.20
2017-07-12T12:28:40.512Z,28.30
2017-07-12T12:31:08.114Z,28.20
2017-07-12T12:33:36.451Z,28.30
2017-07-12T12:36:04.794Z,28.20
2017-07-12T12:38:32.391Z,28.30
2017-07-12T12:41:00.037Z,28.30
2017-07-12T12:43:27.919Z,28.20
2017-07-12T12:45:55.514Z,28.30
2017-07-12T12:48:23.163Z,28.20
2017-07-12T12:50:51.383Z,28.30
2017-07-12T12:53:19.002Z,28.30
2017-07-12T12:55:46.618Z,28.30
2017-07-12T12:58:14.339Z,28.30
2017-07-12T13:00:41.939Z,28.30
2017-07-12T13:03:09.575Z,28.40
2017-07-12T13:05:40.843Z,28.40
2017-07-12T13:08:08.480Z,28.40
2017-07-12T13:10:36.074Z,28.40
2017-07-12T13:13:03.741Z,28.40
2017-07-12T13:15:31.373Z,28.40
2017-07-12T13:17:58.971Z,28.40
2017-07-12T13:20:26.579Z,28.30
2017-07-12T13:22:54.168Z,28.30
2017-07-12T13:25:21.841Z,28.30
2017-07-12T13:27:49.462Z,28.30
2017-07-12T13:30:17.054Z,28.30
2017-07-12T13:32:45.191Z,28.30
2017-07-12T13:35:12.971Z,28.40
2017-07-12T13:37:40.579Z,28.40
2017-07-12T13:40:08.207Z,28.30
2017-07-12T13:42:36.470Z,28.30
2017-07-12T13:45:04.489Z,28.30
2017-07-12T13:47:32.140Z,28.30
2017-07-12T13:49:59.759Z,28.30
2017-07-12T13:52:27.436Z,28.30
2017-07-12T13:54:55.410Z,28.30
2017-07-12T13:57:24.397Z,28.30
2017-07-12T13:59:54.932Z,28.30
2017-07-12T14:02:23.355Z,28.30
2017-07-12T14:04:53.168Z,28.30
2017-07-12T14:07:20.762Z,28.30
2017-07-12T14:09:48.346Z,28.30
2017-07-12T14:12:16.002Z,28.30
2017-07-12T14:14:45.368Z,28.30
2017-07-12T14:17:12.957Z,28.30
2017-07-12T14:19:40.573Z,28.30
2017-07-12T14:22:09.201Z,28.30
2017-07-12T14:24:36.818Z,28.30
2017-07-12T14:27:05.174Z,28.30
2017-07-12T14:29:32.759Z,28.30
2017-07-12T14:32:01.137Z,28.30
2017-07-12T14:34:28.726Z,28.30
2017-07-12T14:36:57.023Z,28.30
2017-07-12T14:39:24.587Z,28.30
2017-07-12T14:41:52.995Z,28.30
2017-07-12T14:44:21.346Z,28.30
2017-07-12T14:46:49.519Z,28.30
2017-07-12T14:49:17.126Z,28.30
2017-07-12T14:51:44.843Z,28.30
2017-07-12T14:54:12.430Z,28.30
2017-07-12T14:56:40.795Z,28.30
2017-07-12T14:59:08.437Z,28.30
2017-07-12T15:01:36.729Z,28.30
2017-07-12T15:04:06.141Z,28.30
2017-07-12T15:06:35.650Z,28.30
2017-07-12T15:09:03.301Z,28.30
2017-07-12T15:11:31.679Z,28.30
2017-07-12T15:13:59.615Z,28.30
2017-07-12T15:16:27.226Z,28.30
2017-07-12T15:18:55.584Z,28.30
2017-07-12T15:21:24.033Z,28.30
2017-07-12T15:23:51.618Z,28.30
2017-07-12T15:26:19.891Z,28.30
2017-07-12T15:28:47.511Z,28.40
2017-07-12T15:31:15.129Z,28.30
2017-07-12T15:33:42.847Z,28.40
2017-07-12T15:36:10.430Z,28.40
2017-07-12T15:38:37.999Z,28.40
2017-07-12T15:41:07.161Z,28.40
2017-07-12T15:43:34.730Z,28.40
2017-07-12T15:46:02.298Z,28.40
2017-07-12T15:48:30.578Z,28.40
2017-07-12T15:50:58.166Z,28.40
2017-07-12T15:53:26.579Z,28.40
2017-07-12T15:55:54.190Z,28.40
2017-07-12T15:58:21.754Z,28.40
2017-07-12T16:00:49.837Z,28.40
2017-07-12T16:03:17.426Z,28.40
2017-07-12T16:05:44.985Z,28.40
2017-07-12T16:08:12.578Z,28.40
2017-07-12T16:10:40.190Z,28.40
2017-07-12T16:13:07.773Z,28.40
2017-07-12T16:15:35.394Z,28.40
2017-07-12T16:18:03.808Z,28.40
2017-07-12T16:20:31.414Z,28.40
2017-07-12T16:22:58.984Z,28.40
2017-07-12T16:25:26.865Z,28.40
2017-07-12T16:27:54.465Z,28.40
2017-07-12T16:30:22.053Z,28.40
2017-07-12T16:32:49.784Z,28.40
2017-07-12T16:35:17.890Z,28.50
2017-07-12T16:37:45.477Z,28.50
2017-07-12T16:40:13.199Z,28.40
2017-07-12T16:42:40.774Z,28.40
2017-07-12T16:45:08.372Z,28.50
2017-07-12T16:47:35.986Z,28.50
2017-07-12T16:50:03.578Z,28.50
2017-07-12T16:52:31.161Z,28.50
2017-07-12T16:54:58.778Z,28.50
2017-07-12T16:57:26.367Z,28.50
2017-07-12T16:59:54.090Z,28.50
2017-07-12T17:02:21.707Z,28.50
2017-07-12T17:04:50.015Z,28.50
2017-07-12T17:07:17.587Z,28.50
2017-07-12T17:09:45.971Z,28.50
2017-07-12T17:12:13.589Z,28.50
2017-07-12T17:14:41.906Z,28.50
2017-07-12T17:17:10.196Z,28.50
2017-07-12T17:19:37.838Z,28.50
2017-07-12T17:22:05.441Z,28.50
2017-07-12T17:24:33.811Z,28.50
2017-07-12T17:27:01.408Z,28.50
2017-07-12T17:29:29.698Z,28.50
2017-07-12T17:31:57.313Z,28.50
2017-07-12T17:34:25.643Z,28.50
2017-07-12T17:36:53.250Z,28.50
2017-07-12T17:39:20.851Z,28.50
2017-07-12T17:41:48.442Z,28.50
2017-07-12T17:44:16.015Z,28.50
2017-07-12T17:46:43.618Z,28.50
2017-07-12T17:49:11.211Z,28.50
2017-07-12T17:51:38.779Z,28.50
2017-07-12T17:54:06.632Z,28.50
2017-07-12T17:56:34.226Z,28.50
2017-07-12T17:59:01.798Z,28.60
2017-07-12T18:01:29.405Z,28.60
2017-07-12T18:03:56.979Z,28.70
2017-07-12T18:06:24.566Z,28.70
2017-07-12T18:08:52.162Z,28.70
2017-07-12T18:11:19.730Z,28.80
2017-07-12T18:13:47.298Z,28.80
2017-07-12T18:16:14.929Z,28.70
2017-07-12T18:18:42.534Z,28.70
2017-07-12T18:21:10.125Z,28.80
2017-07-12T18:23:37.743Z,28.80
2017-07-12T18:26:05.319Z,28.80
2017-07-12T18:28:32.906Z,28.80
2017-07-12T18:31:00.526Z,28.80
2017-07-12T18:33:28.122Z,28.80
2017-07-12T18:35:55.719Z,28.90
2017-07-12T18:38:23.341Z,28.90
2017-07-12T18:40:50.927Z,28.80
2017-07-12T18:43:18.523Z,28.80
2017-07-12T18:45:47.002Z,28.80
2017-07-12T18:48:15.144Z,28.80
2017-07-12T18:50:42.714Z,28.80
2017-07-12T18:53:10.326Z,28.80
2017-07-12T18:55:37.934Z,28.80
2017-07-12T18:58:05.530Z,28.80
2017-07-12T19:00:33.157Z,28.80
2017-07-12T19:03:00.846Z,28.80
2017-07-12T19:05:28.539Z,28.80
2017-07-12T19:07:56.179Z,28.80
2017-07-12T19:10:24.515Z,28.80
2017-07-12T19:15:47.418Z,28.80
2017-07-12T19:18:16.122Z,28.80
2017-07-12T19:20:46.149Z,28.80
2017-07-12T19:23:20.450Z,28.80
2017-07-12T19:25:48.687Z,28.80
2017-07-12T19:28:16.595Z,28.70
2017-07-12T19:30:45.311Z,28.80
2017-07-12T19:33:15.040Z,28.80
2017-07-12T19:35:43.043Z,28.80
2017-07-12T19:38:11.518Z,28.80
2017-07-12T19:40:39.983Z,28.80
2017-07-12T19:43:09.065Z,28.80
2017-07-12T19:45:36.972Z,28.80
2017-07-12T19:48:06.077Z,28.80
2017-07-12T19:50:34.127Z,28.80
2017-07-12T19:53:01.777Z,28.80
2017-07-12T19:55:29.359Z,28.80
2017-07-12T19:57:56.979Z,28.80
2017-07-12T20:00:24.620Z,28.80
2017-07-12T20:02:52.223Z,28.70
2017-07-12T20:05:20.287Z,28.80
2017-07-12T20:07:49.670Z,28.80
2017-07-12T20:10:18.461Z,28.80
2017-07-12T20:12:47.130Z,28.70
2017-07-12T20:15:17.181Z,28.80
2017-07-12T20:17:47.340Z,28.80
2017-07-12T20:20:16.719Z,28.80
2017-07-12T20:22:46.255Z,28.70
2017-07-12T20:25:17.133Z,28.80
2017-07-12T20:27:48.794Z,28.80
2017-07-12T20:30:18.282Z,28.80
2017-07-12T20:32:48.822Z,28.80
2017-07-12T20:35:19.306Z,28.70
2017-07-12T20:37:49.699Z,28.70
2017-07-12T20:40:18.870Z,28.70
2017-07-12T20:42:49.451Z,28.70
2017-07-12T20:45:20.431Z,28.70
2017-07-12T20:47:50.443Z,28.70
2017-07-12T20:50:19.292Z,28.70
2017-07-12T20:52:49.693Z,28.60
2017-07-12T20:55:21.093Z,28.60
2017-07-12T20:57:48.671Z,28.60
2017-07-12T21:00:16.262Z,28.60
2017-07-12T21:02:43.895Z,28.60
2017-07-12T21:05:11.511Z,28.60
2017-07-12T21:07:39.116Z,28.50
2017-07-12T21:10:06.726Z,28.50
2017-07-12T21:12:34.304Z,28.50
2017-07-12T21:15:02.398Z,28.50
2017-07-12T21:17:30.054Z,28.50
2017-07-12T21:19:57.637Z,28.50
2017-07-12T21:22:28.916Z,28.40
2017-07-12T21:24:57.218Z,28.40
2017-07-12T21:27:25.007Z,28.50
2017-07-12T21:29:52.621Z,28.60
2017-07-12T21:32:25.880Z,28.60
2017-07-12T21:34:53.479Z,28.60
2017-07-12T21:37:21.088Z,28.60
2017-07-12T21:39:49.432Z,28.60
2017-07-12T21:42:17.040Z,28.60
2017-07-12T21:44:44.716Z,28.60
2017-07-12T21:47:12.310Z,28.70
2017-07-12T21:49:40.863Z,28.60
2017-07-12T21:52:08.442Z,28.70
2017-07-12T21:54:53.604Z,28.70
2017-07-12T21:57:38.581Z,28.70
2017-07-12T22:00:23.785Z,28.70
2017-07-12T22:03:08.874Z,28.60
2017-07-12T22:05:53.871Z,28.60
2017-07-12T22:08:38.883Z,28.60
2017-07-12T22:11:23.927Z,28.60
2017-07-12T22:14:09.838Z,28.60
2017-07-12T22:16:54.860Z,28.60
2017-07-12T22:19:40.694Z,28.70
2017-07-12T22:22:25.690Z,28.70
2017-07-12T22:25:10.653Z,28.70
2017-07-12T22:27:55.651Z,28.70
2017-07-12T22:30:40.614Z,28.70
2017-07-12T22:33:25.582Z,28.60
2017-07-12T22:36:10.750Z,28.60
2017-07-12T22:38:43.873Z,28.60
2017-07-12T22:41:16.959Z,28.60
2017-07-12T22:43:45.117Z,28.60
2017-07-12T22:46:12.839Z,28.60
2017-07-12T22:48:40.457Z,28.60
2017-07-12T22:51:08.103Z,28.60
2017-07-12T22:53:36.490Z,28.60
2017-07-12T22:56:05.126Z,28.60
2017-07-12T22:58:32.754Z,28.60
2017-07-12T23:01:00.403Z,28.60
2017-07-12T23:03:28.033Z,28.60
2017-07-12T23:05:55.653Z,28.60
2017-07-12T23:08:23.262Z,28.60
2017-07-12T23:10:50.878Z,28.60
2017-07-12T23:13:18.455Z,28.60
2017-07-12T23:15:46.059Z,28.60
2017-07-12T23:18:13.757Z,28.60
2017-07-12T23:20:41.304Z,28.60
2017-07-12T23:23:08.950Z,28.60
2017-07-12T23:25:37.296Z,28.60
2017-07-12T23:28:05.635Z,28.60
2017-07-12T23:30:33.233Z,28.60
2017-07-12T23:33:00.818Z,28.60
2017-07-12T23:35:28.387Z,28.60
2017-07-12T23:37:55.978Z,28.60
2017-07-12T23:40:23.542Z,28.60
2017-07-12T23:42:51.121Z,28.60
2017-07-12T23:45:18.734Z,28.60
2017-07-12T23:47:46.318Z,28.60
2017-07-12T23:50:13.886Z,28.60
2017-07-12T23:52:41.854Z,28.60
2017-07-12T23:55:09.438Z,28.60
2017-07-12T23:57:37.006Z,28.60
